Lester, West Virginia
Current Conditions -  °F | °C
As of 5:51 AM on Saturday 25 Oct 2014 (Local Time) from KBKW Reporting Station
Clear Clear  
Wind Chill: 34°   Ceiling: Unl
Heat Index: 38°   Visibility: 10mi
Dew Point: 35°   Wind: 5mph
Humidity: 89%   Direction: 180°S
Pressure: 30.05"   Gusts: NA
Location:  37.73°N, 81.3°W
Report Text: KBKW 250951Z AUTO 18004KT 10SM CLR 03/02 A3005 RMK AO2 SLP181 T00330017 TSNO
Loading
Personal Weather Stations






























Interactive Weather Map
Tropical Storm Tracking
New forecast layout! Learn more

10-Day Weather Forecast

Advertisements
Track Severe Weather on mobile